Time,TemperatureF,DewpointF,PressureIn,WindDirection,WindDirectionDegrees,WindSpeedMPH,WindSpeedGustMPH,Humidity,HourlyPrecipIn,Conditions,Clouds,dailyrainin,SoftwareType,DateUTC
2013-03-03 00:00:00,30.4,18.6,29.93,NW,313,9.0,9.0,61,0.00,,---,0.00,VWS V14.01,2013-03-03 05:00:00,
2013-03-03 00:05:00,30.3,18.5,29.92,WNW,302,9.0,12.0,61,0.00,,---,0.00,VWS V14.01,2013-03-03 05:05:00,
2013-03-03 00:13:00,30.2,18.4,29.92,North,360,7.0,12.0,61,0.00,,---,0.00,VWS V14.01,2013-03-03 05:13:00,
2013-03-03 00:18:00,30.2,18.8,29.93,NW,313,5.0,12.0,62,0.00,,---,0.00,VWS V14.01,2013-03-03 05:18:00,
2013-03-03 00:23:00,30.2,18.8,29.92,WNW,294,12.0,14.0,62,0.00,,---,0.00,VWS V14.01,2013-03-03 05:23:00,
2013-03-03 00:28:00,30.2,18.4,29.92,NW,315,8.0,17.0,61,0.00,,---,0.00,VWS V14.01,2013-03-03 05:28:00,
2013-03-03 00:30:00,29.6,18.9,29.93,NNW,345,3.0,16.0,64,0.00,,---,0.00,VWS V14.01,2013-03-03 05:30:00,
2013-03-03 00:33:00,30.2,18.8,29.92,NW,312,7.0,16.0,62,0.00,,---,0.00,VWS V14.01,2013-03-03 05:33:00,
2013-03-03 00:38:00,30.2,18.8,29.92,NW,317,9.0,16.0,62,0.00,,---,0.00,VWS V14.01,2013-03-03 05:38:00,
2013-03-03 00:43:00,30.1,18.7,29.92,NNW,329,6.0,16.0,62,0.00,,---,0.00,VWS V14.01,2013-03-03 05:43:00,
2013-03-03 00:48:00,30.1,19.0,29.92,NW,314,4.0,16.0,63,0.00,,---,0.00,VWS V14.01,2013-03-03 05:48:00,
2013-03-03 00:53:00,30.0,19.0,29.92,WNW,292,8.0,16.0,63,0.00,,---,0.00,VWS V14.01,2013-03-03 05:53:00,
2013-03-03 00:58:00,30.0,19.0,29.92,WNW,284,9.0,16.0,63,0.00,,---,0.00,VWS V14.01,2013-03-03 05:58:00,
2013-03-03 01:00:00,29.1,18.8,29.93,NW,311,9.0,16.0,65,0.00,,---,0.00,VWS V14.01,2013-03-03 06:00:00,
2013-03-03 01:03:00,30.0,19.0,29.92,NW,323,5.0,15.0,63,0.00,,---,0.00,VWS V14.01,2013-03-03 06:03:00,
2013-03-03 01:08:00,29.9,19.2,29.92,NNW,341,9.0,15.0,64,0.00,,---,0.00,VWS V14.01,2013-03-03 06:08:00,
2013-03-03 01:13:00,29.9,19.2,29.92,NNW,339,7.0,16.0,64,0.00,,---,0.00,VWS V14.01,2013-03-03 06:13:00,
2013-03-03 01:18:00,29.8,19.1,29.93,NW,317,11.0,16.0,64,0.00,,---,0.00,VWS V14.01,2013-03-03 06:18:00,
2013-03-03 01:23:00,29.8,19.1,29.93,NNW,333,8.0,16.0,64,0.00,,---,0.00,VWS V14.01,2013-03-03 06:23:00,
2013-03-03 01:28:00,29.7,18.7,29.93,NW,306,10.0,16.0,63,0.00,,---,0.00,VWS V14.01,2013-03-03 06:28:00,
2013-03-03 01:30:00,28.8,18.2,29.92,NW,304,5.0,13.0,64,0.00,,---,0.00,VWS V14.01,2013-03-03 06:30:00,
2013-03-03 01:33:00,29.5,18.5,29.93,NW,325,7.0,10.0,63,0.00,,---,0.00,VWS V14.01,2013-03-03 06:33:00,
2013-03-03 01:38:00,29.4,18.7,29.93,NW,311,6.0,14.0,64,0.00,,---,0.00,VWS V14.01,2013-03-03 06:38:00,
2013-03-03 01:43:00,29.3,18.6,29.93,WNW,302,6.0,14.0,64,0.00,,---,0.00,VWS V14.01,2013-03-03 06:43:00,
2013-03-03 01:48:00,29.2,18.5,29.93,West,266,5.0,14.0,64,0.00,,---,0.00,VWS V14.01,2013-03-03 06:48:00,
2013-03-03 01:53:00,29.2,18.5,29.93,NW,309,4.0,14.0,64,0.00,,---,0.00,VWS V14.01,2013-03-03 06:53:00,
2013-03-03 01:58:00,29.1,18.8,29.93,WNW,286,15.0,16.0,65,0.00,,---,0.00,VWS V14.01,2013-03-03 06:58:00,
2013-03-03 02:00:00,28.8,17.8,29.91,NNW,331,6.0,15.0,63,0.00,,---,0.00,VWS V14.01,2013-03-03 07:00:00,
2013-03-03 02:03:00,29.0,18.7,29.93,West,277,9.0,11.0,65,0.00,,---,0.00,VWS V14.01,2013-03-03 07:03:00,
2013-03-03 02:08:00,29.0,18.4,29.92,West,268,9.0,11.0,64,0.00,,---,0.00,VWS V14.01,2013-03-03 07:08:00,
2013-03-03 02:13:00,28.9,18.6,29.92,NW,313,4.0,12.0,65,0.00,,---,0.00,VWS V14.01,2013-03-03 07:13:00,
2013-03-03 02:18:00,28.8,18.2,29.92,West,281,7.0,13.0,64,0.00,,---,0.00,VWS V14.01,2013-03-03 07:18:00,
2013-03-03 02:23:00,28.8,18.2,29.92,NW,311,9.0,13.0,64,0.00,,---,0.00,VWS V14.01,2013-03-03 07:23:00,
2013-03-03 02:28:00,28.8,18.2,29.92,NW,305,6.0,13.0,64,0.00,,---,0.00,VWS V14.01,2013-03-03 07:28:00,
2013-03-03 02:30:00,28.6,17.6,29.90,NW,311,7.0,13.0,63,0.00,,---,0.00,VWS V14.01,2013-03-03 07:30:00,
2013-03-03 02:33:00,28.8,18.2,29.91,West,279,6.0,14.0,64,0.00,,---,0.00,VWS V14.01,2013-03-03 07:33:00,
2013-03-03 02:38:00,28.8,18.2,29.91,NW,319,9.0,14.0,64,0.00,,---,0.00,VWS V14.01,2013-03-03 07:38:00,
2013-03-03 02:43:00,28.8,17.8,29.91,WNW,285,5.0,14.0,63,0.00,,---,0.00,VWS V14.01,2013-03-03 07:43:00,
2013-03-03 02:48:00,28.8,17.8,29.91,WNW,298,8.0,14.0,63,0.00,,---,0.00,VWS V14.01,2013-03-03 07:48:00,
2013-03-03 02:53:00,28.8,17.8,29.91,NW,318,8.0,15.0,63,0.00,,---,0.00,VWS V14.01,2013-03-03 07:53:00,
2013-03-03 02:58:00,28.8,17.8,29.91,NNW,330,4.0,15.0,63,0.00,,---,0.00,VWS V14.01,2013-03-03 07:58:00,
2013-03-03 03:00:00,28.3,17.3,29.90,WNW,300,5.0,10.0,63,0.00,,---,0.00,VWS V14.01,2013-03-03 08:00:00,
2013-03-03 03:03:00,28.8,17.8,29.91,NNW,336,6.0,9.0,63,0.00,,---,0.00,VWS V14.01,2013-03-03 08:03:00,
2013-03-03 03:08:00,28.8,17.8,29.91,West,281,7.0,13.0,63,0.00,,---,0.00,VWS V14.01,2013-03-03 08:08:00,
2013-03-03 03:13:00,28.8,17.8,29.91,WNW,284,8.0,13.0,63,0.00,,---,0.00,VWS V14.01,2013-03-03 08:13:00,
2013-03-03 03:18:00,28.7,17.7,29.90,NW,306,11.0,13.0,63,0.00,,---,0.00,VWS V14.01,2013-03-03 08:18:00,
2013-03-03 03:23:00,28.6,17.6,29.90,NW,317,6.0,13.0,63,0.00,,---,0.00,VWS V14.01,2013-03-03 08:23:00,
2013-03-03 03:28:00,28.6,17.6,29.90,NW,318,4.0,13.0,63,0.00,,---,0.00,VWS V14.01,2013-03-03 08:28:00,
2013-03-03 03:30:00,28.0,16.7,29.91,NNW,331,8.0,12.0,62,0.00,,---,0.00,VWS V14.01,2013-03-03 08:30:00,
2013-03-03 03:33:00,28.6,17.6,29.90,NW,325,7.0,8.0,63,0.00,,---,0.00,VWS V14.01,2013-03-03 08:33:00,
2013-03-03 03:38:00,28.5,17.5,29.90,NW,325,4.0,10.0,63,0.00,,---,0.00,VWS V14.01,2013-03-03 08:38:00,
2013-03-03 03:43:00,28.4,17.4,29.90,NW,306,5.0,10.0,63,0.00,,---,0.00,VWS V14.01,2013-03-03 08:43:00,
2013-03-03 03:48:00,28.3,17.3,29.90,WNW,298,6.0,10.0,63,0.00,,---,0.00,VWS V14.01,2013-03-03 08:48:00,
2013-03-03 03:53:00,28.3,17.3,29.90,NW,306,4.0,10.0,63,0.00,,---,0.00,VWS V14.01,2013-03-03 08:53:00,
2013-03-03 03:58:00,28.3,17.3,29.90,NW,308,5.0,10.0,63,0.00,,---,0.00,VWS V14.01,2013-03-03 08:58:00,
2013-03-03 04:00:00,28.1,16.8,29.90,WNW,293,7.0,18.0,62,0.00,,---,0.00,VWS V14.01,2013-03-03 09:00:00,
2013-03-03 04:03:00,28.2,17.2,29.90,WNW,296,6.0,9.0,63,0.00,,---,0.00,VWS V14.01,2013-03-03 09:03:00,
2013-03-03 04:08:00,28.1,17.1,29.90,NW,313,5.0,9.0,63,0.00,,---,0.00,VWS V14.01,2013-03-03 09:08:00,
2013-03-03 04:13:00,28.1,17.1,29.90,WNW,287,11.0,11.0,63,0.00,,---,0.00,VWS V14.01,2013-03-03 09:13:00,
2013-03-03 04:18:00,28.1,17.1,29.90,NW,314,7.0,12.0,63,0.00,,---,0.00,VWS V14.01,2013-03-03 09:18:00,
2013-03-03 04:23:00,28.0,17.0,29.90,WNW,301,6.0,12.0,63,0.00,,---,0.00,VWS V14.01,2013-03-03 09:23:00,
2013-03-03 04:28:00,28.0,16.7,29.91,NNW,330,4.0,12.0,62,0.00,,---,0.00,VWS V14.01,2013-03-03 09:28:00,
2013-03-03 04:30:00,27.8,17.2,29.91,NW,317,9.0,14.0,64,0.00,,---,0.00,VWS V14.01,2013-03-03 09:30:00,
2013-03-03 04:33:00,28.0,16.7,29.90,North,10,9.0,14.0,62,0.00,,---,0.00,VWS V14.01,2013-03-03 09:33:00,
2013-03-03 04:38:00,28.1,16.8,29.90,NW,311,10.0,14.0,62,0.00,,---,0.00,VWS V14.01,2013-03-03 09:38:00,
2013-03-03 04:43:00,28.1,16.8,29.90,NW,306,10.0,18.0,62,0.00,,---,0.00,VWS V14.01,2013-03-03 09:43:00,
2013-03-03 04:48:00,28.2,16.9,29.90,WNW,287,13.0,18.0,62,0.00,,---,0.00,VWS V14.01,2013-03-03 09:48:00,
2013-03-03 04:53:00,28.1,16.8,29.91,NW,308,9.0,18.0,62,0.00,,---,0.00,VWS V14.01,2013-03-03 09:53:00,
2013-03-03 04:58:00,28.1,16.8,29.90,West,281,12.0,18.0,62,0.00,,---,0.00,VWS V14.01,2013-03-03 09:58:00,
2013-03-03 05:00:00,27.7,16.8,29.92,WNW,301,8.0,15.0,63,0.00,,---,0.00,VWS V14.01,2013-03-03 10:00:00,
2013-03-03 05:03:00,28.1,17.1,29.90,NW,306,6.0,13.0,63,0.00,,---,0.00,VWS V14.01,2013-03-03 10:03:00,
2013-03-03 05:08:00,28.0,17.0,29.91,WNW,290,6.0,13.0,63,0.00,,---,0.00,VWS V14.01,2013-03-03 10:08:00,
2013-03-03 05:13:00,28.0,17.0,29.91,North,349,7.0,13.0,63,0.00,,---,0.00,VWS V14.01,2013-03-03 10:13:00,
2013-03-03 05:18:00,27.9,17.0,29.91,WNW,297,6.0,14.0,63,0.00,,---,0.00,VWS V14.01,2013-03-03 10:18:00,
2013-03-03 05:23:00,27.9,17.3,29.91,NNW,327,9.0,14.0,64,0.00,,---,0.00,VWS V14.01,2013-03-03 10:23:00,
2013-03-03 05:28:00,27.8,17.2,29.91,North,355,8.0,14.0,64,0.00,,---,0.00,VWS V14.01,2013-03-03 10:28:00,
2013-03-03 05:30:00,27.3,16.8,29.92,WNW,296,5.0,12.0,64,0.00,,---,0.00,VWS V14.01,2013-03-03 10:30:00,
2013-03-03 05:33:00,27.8,17.2,29.91,WNW,288,7.0,14.0,64,0.00,,---,0.00,VWS V14.01,2013-03-03 10:33:00,
2013-03-03 05:38:00,27.8,16.9,29.91,WNW,302,5.0,14.0,63,0.00,,---,0.00,VWS V14.01,2013-03-03 10:38:00,
2013-03-03 05:43:00,27.8,16.9,29.91,NW,306,7.0,14.0,63,0.00,,---,0.00,VWS V14.01,2013-03-03 10:43:00,
2013-03-03 05:48:00,27.8,16.9,29.91,NW,313,13.0,14.0,63,0.00,,---,0.00,VWS V14.01,2013-03-03 10:48:00,
2013-03-03 05:53:00,27.8,16.9,29.92,WNW,303,7.0,14.0,63,0.00,,---,0.00,VWS V14.01,2013-03-03 10:53:00,
2013-03-03 05:58:00,27.7,16.8,29.92,West,276,9.0,15.0,63,0.00,,---,0.00,VWS V14.01,2013-03-03 10:58:00,
2013-03-03 06:00:00,27.1,16.9,29.93,WNW,298,10.0,14.0,65,0.00,,---,0.00,VWS V14.01,2013-03-03 11:00:00,
2013-03-03 06:03:00,27.7,16.8,29.92,WNW,292,8.0,12.0,63,0.00,,---,0.00,VWS V14.01,2013-03-03 11:03:00,
2013-03-03 06:08:00,27.6,16.7,29.92,WNW,288,8.0,12.0,63,0.00,,---,0.00,VWS V14.01,2013-03-03 11:08:00,
2013-03-03 06:13:00,27.5,16.6,29.92,NW,312,4.0,12.0,63,0.00,,---,0.00,VWS V14.01,2013-03-03 11:13:00,
2013-03-03 06:18:00,27.5,16.9,29.92,NNW,337,8.0,12.0,64,0.00,,---,0.00,VWS V14.01,2013-03-03 11:18:00,
2013-03-03 06:23:00,27.4,16.8,29.92,NW,314,5.0,12.0,64,0.00,,---,0.00,VWS V14.01,2013-03-03 11:23:00,
2013-03-03 06:28:00,27.3,17.1,29.92,WNW,291,5.0,12.0,65,0.00,,---,0.00,VWS V14.01,2013-03-03 11:28:00,
2013-03-03 06:30:00,28.0,17.0,29.93,NNW,328,7.0,14.0,63,0.00,,---,0.00,VWS V14.01,2013-03-03 11:30:00,
2013-03-03 06:33:00,27.2,16.6,29.92,NW,322,6.0,7.0,64,0.00,,---,0.00,VWS V14.01,2013-03-03 11:33:00,
2013-03-03 06:38:00,27.2,16.6,29.92,WNW,292,2.0,14.0,64,0.00,,---,0.00,VWS V14.01,2013-03-03 11:38:00,
2013-03-03 06:43:00,27.1,16.6,29.93,NW,313,7.0,14.0,64,0.00,,---,0.00,VWS V14.01,2013-03-03 11:43:00,
2013-03-03 06:48:00,27.0,16.8,29.92,NW,320,4.0,14.0,65,0.00,,---,0.00,VWS V14.01,2013-03-03 11:48:00,
2013-03-03 06:53:00,27.0,16.5,29.92,WNW,302,2.0,14.0,64,0.00,,---,0.00,VWS V14.01,2013-03-03 11:53:00,
2013-03-03 06:58:00,27.1,16.9,29.93,NW,318,9.0,14.0,65,0.00,,---,0.00,VWS V14.01,2013-03-03 11:58:00,
2013-03-03 07:00:00,29.1,17.3,29.94,NW,309,6.0,17.0,61,0.00,,---,0.00,VWS V14.01,2013-03-03 12:00:00,
2013-03-03 07:03:00,27.2,16.6,29.93,WNW,299,5.0,14.0,64,0.00,,---,0.00,VWS V14.01,2013-03-03 12:03:00,
2013-03-03 07:08:00,27.4,16.8,29.93,WNW,303,7.0,14.0,64,0.00,,---,0.00,VWS V14.01,2013-03-03 12:08:00,
2013-03-03 07:13:00,27.6,17.0,29.93,North,360,8.0,14.0,64,0.00,,---,0.00,VWS V14.01,2013-03-03 12:13:00,
2013-03-03 07:18:00,27.7,16.0,29.93,North,351,7.0,-999.0,63,-99.99,,,0.00,weatherlink.com 1.10,2013-03-03 12:18:00,
2013-03-03 07:23:00,27.8,16.9,29.93,NW,304,9.0,14.0,63,0.00,,---,0.00,VWS V14.01,2013-03-03 12:23:00,
2013-03-03 07:28:00,27.9,17.0,29.93,NNW,329,4.0,14.0,63,0.00,,---,0.00,VWS V14.01,2013-03-03 12:28:00,
2013-03-03 07:30:00,29.7,17.1,29.95,North,360,11.0,21.0,59,0.00,,---,0.00,VWS V14.01,2013-03-03 12:30:00,
2013-03-03 07:33:00,28.1,17.1,29.93,WNW,284,7.0,11.0,63,0.00,,---,0.00,VWS V14.01,2013-03-03 12:33:00,
2013-03-03 07:38:00,28.3,17.0,29.94,NW,307,7.0,12.0,62,0.00,,---,0.00,VWS V14.01,2013-03-03 12:38:00,
2013-03-03 07:43:00,28.6,17.2,29.94,WNW,289,4.0,12.0,62,0.00,,---,0.00,VWS V14.01,2013-03-03 12:43:00,
2013-03-03 07:48:00,28.7,17.3,29.94,North,351,10.0,15.0,62,0.00,,---,0.00,VWS V14.01,2013-03-03 12:48:00,
2013-03-03 07:53:00,28.9,17.2,29.94,West,281,12.0,15.0,61,0.00,,---,0.00,VWS V14.01,2013-03-03 12:53:00,
2013-03-03 07:58:00,29.1,17.3,29.94,NW,312,7.0,15.0,61,0.00,,---,0.00,VWS V14.01,2013-03-03 12:58:00,
2013-03-03 08:00:00,30.8,17.8,29.95,NW,325,13.0,22.0,58,0.00,,---,0.00,VWS V14.01,2013-03-03 13:00:00,
2013-03-03 08:03:00,29.2,17.4,29.94,WNW,303,7.0,13.0,61,0.00,,---,0.00,VWS V14.01,2013-03-03 13:03:00,
2013-03-03 08:08:00,29.4,17.2,29.94,NNW,339,9.0,13.0,60,0.00,,---,0.00,VWS V14.01,2013-03-03 13:08:00,
2013-03-03 08:13:00,29.5,17.3,29.94,NW,305,9.0,20.0,60,0.00,,---,0.00,VWS V14.01,2013-03-03 13:13:00,
2013-03-03 08:18:00,29.5,17.3,29.94,WSW,254,9.0,21.0,60,0.00,,---,0.00,VWS V14.01,2013-03-03 13:18:00,
2013-03-03 08:23:00,29.5,17.3,29.95,NNW,346,8.0,21.0,60,0.00,,---,0.00,VWS V14.01,2013-03-03 13:23:00,
2013-03-03 08:28:00,29.7,17.5,29.95,West,269,16.0,21.0,60,0.00,,---,0.00,VWS V14.01,2013-03-03 13:28:00,
2013-03-03 08:30:00,30.4,17.8,29.95,WNW,303,11.0,20.0,59,0.00,,---,0.00,VWS V14.01,2013-03-03 13:30:00,
2013-03-03 08:33:00,29.8,17.2,29.95,WNW,292,10.0,15.0,59,0.00,,---,0.00,VWS V14.01,2013-03-03 13:33:00,
2013-03-03 08:38:00,30.0,17.8,29.95,West,269,10.0,17.0,60,0.00,,---,0.00,VWS V14.01,2013-03-03 13:38:00,
2013-03-03 08:43:00,30.2,18.0,29.95,WNW,302,8.0,19.0,60,0.00,,---,0.00,VWS V14.01,2013-03-03 13:43:00,
2013-03-03 08:48:00,30.3,18.1,29.95,West,277,13.0,19.0,60,0.00,,---,0.00,VWS V14.01,2013-03-03 13:48:00,
2013-03-03 08:53:00,30.5,17.9,29.95,WNW,300,13.0,22.0,59,0.00,,---,0.00,VWS V14.01,2013-03-03 13:53:00,
2013-03-03 08:58:00,30.7,18.1,29.95,WNW,294,8.0,22.0,59,0.00,,---,0.00,VWS V14.01,2013-03-03 13:58:00,
2013-03-03 09:00:00,30.2,17.6,29.95,NW,312,7.0,21.0,59,0.00,,---,0.00,VWS V14.01,2013-03-03 14:00:00,
2013-03-03 09:03:00,31.0,18.0,29.95,NW,325,3.0,18.0,58,0.00,,---,0.00,VWS V14.01,2013-03-03 14:03:00,
2013-03-03 09:08:00,31.0,18.0,29.95,NW,326,16.0,18.0,58,0.00,,---,0.00,VWS V14.01,2013-03-03 14:08:00,
2013-03-03 09:13:00,30.9,17.9,29.95,WNW,282,8.0,20.0,58,0.00,,---,0.00,VWS V14.01,2013-03-03 14:13:00,
2013-03-03 09:18:00,30.6,17.6,29.95,West,275,11.0,20.0,58,0.00,,---,0.00,VWS V14.01,2013-03-03 14:18:00,
2013-03-03 09:23:00,30.4,17.8,29.95,NNW,333,16.0,20.0,59,0.00,,---,0.00,VWS V14.01,2013-03-03 14:23:00,
2013-03-03 09:28:00,30.4,17.8,29.95,WNW,301,9.0,20.0,59,0.00,,---,0.00,VWS V14.01,2013-03-03 14:28:00,
2013-03-03 09:30:00,32.2,18.3,29.95,WNW,288,7.0,21.0,56,0.00,,---,0.00,VWS V14.01,2013-03-03 14:30:00,
2013-03-03 09:33:00,30.4,17.4,29.95,WNW,302,16.0,17.0,58,0.00,,---,0.00,VWS V14.01,2013-03-03 14:33:00,
2013-03-03 09:38:00,30.3,17.7,29.95,NW,307,12.0,21.0,59,0.00,,---,0.00,VWS V14.01,2013-03-03 14:38:00,
2013-03-03 09:43:00,30.3,17.3,29.94,WNW,303,15.0,21.0,58,0.00,,---,0.00,VWS V14.01,2013-03-03 14:43:00,
2013-03-03 09:48:00,30.2,17.2,29.94,NW,322,15.0,21.0,58,0.00,,---,0.00,VWS V14.01,2013-03-03 14:48:00,
2013-03-03 09:53:00,30.1,17.5,29.95,NW,309,14.0,21.0,59,0.00,,---,0.00,VWS V14.01,2013-03-03 14:53:00,
2013-03-03 09:58:00,30.2,17.6,29.95,NW,324,8.0,21.0,59,0.00,,---,0.00,VWS V14.01,2013-03-03 14:58:00,
2013-03-03 10:00:00,32.9,18.1,29.95,WNW,298,9.0,19.0,54,0.00,,---,0.00,VWS V14.01,2013-03-03 15:00:00,
2013-03-03 10:03:00,30.4,18.2,29.94,NNW,344,15.0,18.0,60,0.00,,---,0.00,VWS V14.01,2013-03-03 15:03:00,
2013-03-03 10:08:00,31.1,17.7,29.95,NW,314,13.0,21.0,57,0.00,,---,0.00,VWS V14.01,2013-03-03 15:08:00,
2013-03-03 10:13:00,31.4,17.9,29.95,NW,325,5.0,21.0,57,0.00,,---,0.00,VWS V14.01,2013-03-03 15:13:00,
2013-03-03 10:18:00,31.8,18.3,29.95,NNW,342,4.0,21.0,57,0.00,,---,0.00,VWS V14.01,2013-03-03 15:18:00,
2013-03-03 10:23:00,32.0,17.7,29.95,NNW,348,6.0,21.0,55,0.00,,---,0.00,VWS V14.01,2013-03-03 15:23:00,
2013-03-03 10:28:00,32.1,18.6,29.95,WNW,296,13.0,21.0,57,0.00,,---,0.00,VWS V14.01,2013-03-03 15:28:00,
2013-03-03 10:30:00,34.0,18.7,29.95,NW,321,9.0,18.0,53,0.00,,---,0.00,VWS V14.01,2013-03-03 15:30:00,
2013-03-03 10:33:00,32.2,17.9,29.95,WNW,293,13.0,16.0,55,0.00,,---,0.00,VWS V14.01,2013-03-03 15:33:00,
2013-03-03 10:38:00,32.4,18.5,29.95,NW,325,14.0,17.0,56,0.00,,---,0.00,VWS V14.01,2013-03-03 15:38:00,
2013-03-03 10:43:00,32.6,18.2,29.95,NNW,329,5.0,19.0,55,0.00,,---,0.00,VWS V14.01,2013-03-03 15:43:00,
2013-03-03 10:48:00,32.8,18.4,29.95,NW,323,6.0,19.0,55,0.00,,---,0.00,VWS V14.01,2013-03-03 15:48:00,
2013-03-03 10:53:00,32.9,18.1,29.95,NW,306,7.0,19.0,54,0.00,,---,0.00,VWS V14.01,2013-03-03 15:53:00,
2013-03-03 10:58:00,32.8,18.0,29.95,WNW,300,12.0,19.0,54,0.00,,---,0.00,VWS V14.01,2013-03-03 15:58:00,
2013-03-03 11:00:00,34.2,18.0,29.94,North,355,8.0,18.0,51,0.00,,---,0.00,VWS V14.01,2013-03-03 16:00:00,
2013-03-03 11:03:00,33.0,18.6,29.95,WNW,299,10.0,16.0,55,0.00,,---,0.00,VWS V14.01,2013-03-03 16:03:00,
2013-03-03 11:08:00,33.3,18.5,29.95,West,280,11.0,17.0,54,0.00,,---,0.00,VWS V14.01,2013-03-03 16:08:00,
2013-03-03 11:13:00,33.3,18.5,29.95,North,360,6.0,17.0,54,0.00,,---,0.00,VWS V14.01,2013-03-03 16:13:00,
2013-03-03 11:18:00,33.6,18.7,29.95,West,277,9.0,17.0,54,0.00,,---,0.00,VWS V14.01,2013-03-03 16:18:00,
2013-03-03 11:23:00,33.9,19.0,29.95,WNW,299,6.0,18.0,54,0.00,,---,0.00,VWS V14.01,2013-03-03 16:23:00,
2013-03-03 11:28:00,34.0,18.7,29.95,NNW,346,8.0,18.0,53,0.00,,---,0.00,VWS V14.01,2013-03-03 16:28:00,
2013-03-03 11:30:00,35.2,18.0,29.93,North,355,14.0,17.0,49,0.00,,---,0.00,VWS V14.01,2013-03-03 16:30:00,
2013-03-03 11:33:00,34.2,18.9,29.95,WNW,301,8.0,14.0,53,0.00,,---,0.00,VWS V14.01,2013-03-03 16:33:00,
2013-03-03 11:38:00,34.0,18.2,29.95,NNW,332,9.0,18.0,52,0.00,,---,0.00,VWS V14.01,2013-03-03 16:38:00,
2013-03-03 11:43:00,33.8,18.5,29.95,North,9,10.0,18.0,53,0.00,,---,0.00,VWS V14.01,2013-03-03 16:43:00,
2013-03-03 11:48:00,34.1,17.9,29.94,WNW,294,6.0,18.0,51,0.00,,---,0.00,VWS V14.01,2013-03-03 16:48:00,
2013-03-03 11:53:00,34.3,18.1,29.94,NW,313,10.0,18.0,51,0.00,,---,0.00,VWS V14.01,2013-03-03 16:53:00,
2013-03-03 11:58:00,34.2,18.4,29.94,NW,321,8.0,18.0,52,0.00,,---,0.00,VWS V14.01,2013-03-03 16:58:00,
2013-03-03 12:00:00,34.9,19.1,29.92,NW,325,8.0,19.0,52,0.00,,---,0.00,VWS V14.01,2013-03-03 17:00:00,
2013-03-03 12:03:00,34.4,18.6,29.93,North,11,6.0,15.0,52,0.00,,---,0.00,VWS V14.01,2013-03-03 17:03:00,
2013-03-03 12:08:00,34.8,19.4,29.94,NNW,331,11.0,15.0,53,0.00,,---,0.00,VWS V14.01,2013-03-03 17:08:00,
2013-03-03 12:13:00,34.9,18.6,29.94,NW,304,7.0,15.0,51,0.00,,---,0.00,VWS V14.01,2013-03-03 17:13:00,
2013-03-03 12:18:00,35.2,19.4,29.93,WNW,295,9.0,15.0,52,0.00,,---,0.00,VWS V14.01,2013-03-03 17:18:00,
2013-03-03 12:23:00,35.4,18.1,29.93,WNW,302,12.0,17.0,49,0.00,,---,0.00,VWS V14.01,2013-03-03 17:23:00,
2013-03-03 12:28:00,35.3,18.1,29.94,NW,319,12.0,17.0,49,0.00,,---,0.00,VWS V14.01,2013-03-03 17:28:00,
2013-03-03 12:30:00,35.1,18.8,29.92,WNW,298,9.0,19.0,51,0.00,,---,0.00,VWS V14.01,2013-03-03 17:30:00,
2013-03-03 12:33:00,35.2,18.9,29.93,WNW,294,7.0,14.0,51,0.00,,---,0.00,VWS V14.01,2013-03-03 17:33:00,
2013-03-03 12:38:00,35.2,18.0,29.93,North,10,13.0,14.0,49,0.00,,---,0.00,VWS V14.01,2013-03-03 17:38:00,
2013-03-03 12:43:00,34.5,17.3,29.93,WNW,291,7.0,19.0,49,0.00,,---,0.00,VWS V14.01,2013-03-03 17:43:00,
2013-03-03 12:48:00,34.5,18.7,29.93,North,5,11.0,19.0,52,0.00,,---,0.00,VWS V14.01,2013-03-03 17:48:00,
2013-03-03 12:53:00,34.7,18.9,29.93,NNW,334,11.0,19.0,52,0.00,,---,0.00,VWS V14.01,2013-03-03 17:53:00,
2013-03-03 12:58:00,34.8,19.0,29.92,NNE,17,6.0,19.0,52,0.00,,---,0.00,VWS V14.01,2013-03-03 17:58:00,
2013-03-03 13:00:00,35.2,18.9,29.92,West,274,9.0,24.0,51,0.00,,---,0.00,VWS V14.01,2013-03-03 18:00:00,
2013-03-03 13:03:00,34.8,18.1,29.93,NW,323,8.0,19.0,50,0.00,,---,0.00,VWS V14.01,2013-03-03 18:03:00,
2013-03-03 13:08:00,34.8,18.1,29.92,West,277,12.0,19.0,50,0.00,,---,0.00,VWS V14.01,2013-03-03 18:08:00,
2013-03-03 13:13:00,35.0,18.7,29.92,NNW,337,19.0,19.0,51,0.00,,---,0.00,VWS V14.01,2013-03-03 18:13:00,
2013-03-03 13:18:00,35.1,18.4,29.92,WNW,283,10.0,19.0,50,0.00,,---,0.00,VWS V14.01,2013-03-03 18:18:00,
2013-03-03 13:23:00,35.2,18.4,29.92,West,277,8.0,19.0,50,0.00,,---,0.00,VWS V14.01,2013-03-03 18:23:00,
2013-03-03 13:28:00,35.2,18.9,29.92,NW,305,11.0,19.0,51,0.00,,---,0.00,VWS V14.01,2013-03-03 18:28:00,
2013-03-03 13:30:00,33.9,18.6,29.92,NW,310,16.0,22.0,53,0.00,,---,0.00,VWS V14.01,2013-03-03 18:30:00,
2013-03-03 13:33:00,34.6,18.3,29.92,North,355,14.0,14.0,51,0.00,,---,0.00,VWS V14.01,2013-03-03 18:33:00,
2013-03-03 13:38:00,34.9,19.5,29.92,North,5,9.0,17.0,53,0.00,,---,0.00,VWS V14.01,2013-03-03 18:38:00,
2013-03-03 13:43:00,35.2,19.8,29.92,NW,323,8.0,18.0,53,0.00,,---,0.00,VWS V14.01,2013-03-03 18:43:00,
2013-03-03 13:48:00,35.2,19.8,29.92,NW,310,12.0,19.0,53,0.00,,---,0.00,VWS V14.01,2013-03-03 18:48:00,
2013-03-03 13:53:00,35.3,19.9,29.92,West,271,13.0,19.0,53,0.00,,---,0.00,VWS V14.01,2013-03-03 18:53:00,
2013-03-03 13:58:00,35.5,19.2,29.92,West,277,18.0,24.0,51,0.00,,---,0.00,VWS V14.01,2013-03-03 18:58:00,
2013-03-03 14:00:00,32.3,18.4,29.92,WNW,302,7.0,23.0,56,0.00,,---,0.00,VWS V14.01,2013-03-03 19:00:00,
2013-03-03 14:03:00,34.7,19.3,29.92,NW,316,16.0,20.0,53,0.00,,---,0.00,VWS V14.01,2013-03-03 19:03:00,
2013-03-03 14:08:00,34.4,19.0,29.92,NW,316,10.0,20.0,53,0.00,,---,0.00,VWS V14.01,2013-03-03 19:08:00,
2013-03-03 14:13:00,35.0,19.6,29.92,NW,314,9.0,20.0,53,0.00,,---,0.00,VWS V14.01,2013-03-03 19:13:00,
2013-03-03 14:18:00,35.0,18.2,29.91,NNW,344,4.0,20.0,50,0.00,,---,0.00,VWS V14.01,2013-03-03 19:18:00,
2013-03-03 14:23:00,34.7,18.9,29.92,NW,326,13.0,22.0,52,0.00,,---,0.00,VWS V14.01,2013-03-03 19:23:00,
2013-03-03 14:28:00,34.0,19.1,29.92,WNW,301,13.0,22.0,54,0.00,,---,0.00,VWS V14.01,2013-03-03 19:28:00,
2013-03-03 14:30:00,33.7,19.3,29.92,WNW,286,10.0,20.0,55,0.00,,---,0.00,VWS V14.01,2013-03-03 19:30:00,
2013-03-03 14:33:00,33.6,18.7,29.92,NNW,338,7.0,16.0,54,0.00,,---,0.00,VWS V14.01,2013-03-03 19:33:00,
2013-03-03 14:38:00,33.3,18.9,29.92,NNW,336,5.0,16.0,55,0.00,,---,0.00,VWS V14.01,2013-03-03 19:38:00,
2013-03-03 14:43:00,33.0,18.2,29.92,NW,306,7.0,19.0,54,0.00,,---,0.00,VWS V14.01,2013-03-03 19:43:00,
2013-03-03 14:48:00,32.6,18.2,29.93,WNW,289,9.0,21.0,55,0.00,,---,0.00,VWS V14.01,2013-03-03 19:48:00,
2013-03-03 14:53:00,32.3,18.0,29.92,NW,310,7.0,23.0,55,0.00,,---,0.00,VWS V14.01,2013-03-03 19:53:00,
2013-03-03 14:57:00,32.3,18.4,29.92,NNW,329,10.0,23.0,56,0.00,,---,0.00,VWS V14.01,2013-03-03 19:57:00,
2013-03-03 15:00:00,33.4,18.6,29.93,NW,318,12.0,21.0,54,0.00,,---,0.00,VWS V14.01,2013-03-03 20:00:00,
2013-03-03 15:02:00,32.5,18.6,29.92,NW,304,3.0,9.0,56,0.00,,---,0.00,VWS V14.01,2013-03-03 20:02:00,
2013-03-03 15:08:00,33.3,19.3,29.92,West,262,16.0,18.0,56,0.00,,---,0.00,VWS V14.01,2013-03-03 20:08:00,
2013-03-03 15:13:00,33.5,18.2,29.92,NW,309,10.0,18.0,53,0.00,,---,0.00,VWS V14.01,2013-03-03 20:13:00,
2013-03-03 15:18:00,33.3,18.9,29.92,NW,311,13.0,18.0,55,0.00,,---,0.00,VWS V14.01,2013-03-03 20:18:00,
2013-03-03 15:23:00,33.5,19.1,29.92,West,267,17.0,18.0,55,0.00,,---,0.00,VWS V14.01,2013-03-03 20:23:00,
2013-03-03 15:28:00,33.7,18.4,29.92,West,278,11.0,20.0,53,0.00,,---,0.00,VWS V14.01,2013-03-03 20:28:00,
2013-03-03 15:30:00,32.4,18.0,29.93,NW,307,8.0,18.0,55,0.00,,---,0.00,VWS V14.01,2013-03-03 20:30:00,
2013-03-03 15:33:00,34.1,18.8,29.92,NW,319,10.0,17.0,53,0.00,,---,0.00,VWS V14.01,2013-03-03 20:33:00,
2013-03-03 15:38:00,34.1,18.3,29.92,WNW,284,6.0,21.0,52,0.00,,---,0.00,VWS V14.01,2013-03-03 20:38:00,
2013-03-03 15:43:00,33.4,18.1,29.93,NNW,339,10.0,21.0,53,0.00,,---,0.00,VWS V14.01,2013-03-03 20:43:00,
2013-03-03 15:48:00,33.2,18.4,29.92,NW,325,12.0,21.0,54,0.00,,---,0.00,VWS V14.01,2013-03-03 20:48:00,
2013-03-03 15:53:00,33.4,19.0,29.93,West,269,12.0,21.0,55,0.00,,---,0.00,VWS V14.01,2013-03-03 20:53:00,
2013-03-03 15:58:00,33.4,19.4,29.93,NW,317,9.0,21.0,56,0.00,,---,0.00,VWS V14.01,2013-03-03 20:58:00,
2013-03-03 16:00:00,32.5,17.3,29.93,NNW,333,5.0,22.0,53,0.00,,---,0.00,VWS V14.01,2013-03-03 21:00:00,
2013-03-03 16:03:00,33.3,18.5,29.93,NNE,14,13.0,15.0,54,0.00,,---,0.00,VWS V14.01,2013-03-03 21:03:00,
2013-03-03 16:08:00,33.3,18.9,29.93,NW,323,6.0,16.0,55,0.00,,---,0.00,VWS V14.01,2013-03-03 21:08:00,
2013-03-03 16:13:00,33.4,19.0,29.93,WNW,286,8.0,16.0,55,0.00,,---,0.00,VWS V14.01,2013-03-03 21:13:00,
2013-03-03 16:18:00,33.0,18.6,29.93,WNW,292,4.0,16.0,55,0.00,,---,0.00,VWS V14.01,2013-03-03 21:18:00,
2013-03-03 16:23:00,32.8,18.0,29.93,WNW,289,9.0,17.0,54,0.00,,---,0.00,VWS V14.01,2013-03-03 21:23:00,
2013-03-03 16:28:00,32.4,18.0,29.93,West,271,7.0,18.0,55,0.00,,---,0.00,VWS V14.01,2013-03-03 21:28:00,
2013-03-03 16:30:00,31.4,16.7,29.94,North,355,12.0,19.0,54,0.00,,---,0.00,VWS V14.01,2013-03-03 21:30:00,
2013-03-03 16:33:00,32.0,17.7,29.93,NNW,334,10.0,22.0,55,0.00,,---,0.00,VWS V14.01,2013-03-03 21:33:00,
2013-03-03 16:38:00,31.6,17.3,29.93,West,277,11.0,22.0,55,0.00,,---,0.00,VWS V14.01,2013-03-03 21:38:00,
2013-03-03 16:43:00,31.6,17.7,29.93,West,277,11.0,22.0,56,0.00,,---,0.00,VWS V14.01,2013-03-03 21:43:00,
2013-03-03 16:48:00,31.8,17.5,29.93,North,350,10.0,22.0,55,0.00,,---,0.00,VWS V14.01,2013-03-03 21:48:00,
2013-03-03 16:53:00,32.1,17.3,29.94,NNW,327,6.0,22.0,54,0.00,,---,0.00,VWS V14.01,2013-03-03 21:53:00,
2013-03-03 16:58:00,32.5,17.7,29.94,NW,315,6.0,22.0,54,0.00,,---,0.00,VWS V14.01,2013-03-03 21:58:00,
2013-03-03 17:00:00,30.9,16.2,29.95,NW,311,5.0,23.0,54,0.00,,---,0.00,VWS V14.01,2013-03-03 22:00:00,
2013-03-03 17:03:00,32.8,18.0,29.94,NW,325,12.0,14.0,54,0.00,,---,0.00,VWS V14.01,2013-03-03 22:03:00,
2013-03-03 17:08:00,32.6,16.9,29.94,WNW,296,5.0,14.0,52,0.00,,---,0.00,VWS V14.01,2013-03-03 22:08:00,
2013-03-03 17:13:00,32.5,17.3,29.94,NNW,346,6.0,14.0,53,0.00,,---,0.00,VWS V14.01,2013-03-03 22:13:00,
2013-03-03 17:18:00,32.0,16.8,29.94,WNW,303,10.0,17.0,53,0.00,,---,0.00,VWS V14.01,2013-03-03 22:18:00,
2013-03-03 17:23:00,31.7,16.5,29.94,WNW,292,15.0,19.0,53,0.00,,---,0.00,VWS V14.01,2013-03-03 22:23:00,
2013-03-03 17:28:00,31.5,16.8,29.94,North,349,17.0,19.0,54,0.00,,---,0.00,VWS V14.01,2013-03-03 22:28:00,
2013-03-03 17:30:00,30.4,15.8,29.95,NW,323,6.0,20.0,54,0.00,,---,0.00,VWS V14.01,2013-03-03 22:30:00,
2013-03-03 17:33:00,31.4,16.7,29.94,NNW,336,6.0,14.0,54,0.00,,---,0.00,VWS V14.01,2013-03-03 22:33:00,
2013-03-03 17:38:00,31.5,16.8,29.95,NW,326,8.0,23.0,54,0.00,,---,0.00,VWS V14.01,2013-03-03 22:38:00,
2013-03-03 17:43:00,31.5,16.4,29.94,NW,304,13.0,23.0,53,0.00,,---,0.00,VWS V14.01,2013-03-03 22:43:00,
2013-03-03 17:48:00,31.4,16.3,29.95,NNW,338,9.0,23.0,53,0.00,,---,0.00,VWS V14.01,2013-03-03 22:48:00,
2013-03-03 17:53:00,31.2,16.5,29.95,NNW,330,10.0,23.0,54,0.00,,---,0.00,VWS V14.01,2013-03-03 22:53:00,
2013-03-03 17:58:00,31.0,16.3,29.95,North,349,6.0,23.0,54,0.00,,---,0.00,VWS V14.01,2013-03-03 22:58:00,
2013-03-03 18:00:00,30.4,15.8,29.96,NNW,332,4.0,21.0,54,0.00,,---,0.00,VWS V14.01,2013-03-03 23:00:00,
2013-03-03 18:03:00,30.8,16.5,29.95,North,349,9.0,15.0,55,0.00,,---,0.00,VWS V14.01,2013-03-03 23:03:00,
2013-03-03 18:08:00,30.7,16.5,29.95,NNW,346,5.0,15.0,55,0.00,,---,0.00,VWS V14.01,2013-03-03 23:08:00,
2013-03-03 18:13:00,30.6,16.4,29.95,NW,305,16.0,20.0,55,0.00,,---,0.00,VWS V14.01,2013-03-03 23:13:00,
2013-03-03 18:18:00,30.5,16.3,29.95,NNW,333,12.0,20.0,55,0.00,,---,0.00,VWS V14.01,2013-03-03 23:18:00,
2013-03-03 18:23:00,30.5,15.9,29.96,NNW,339,10.0,20.0,54,0.00,,---,0.00,VWS V14.01,2013-03-03 23:23:00,
2013-03-03 18:28:00,30.4,15.8,29.96,NW,315,5.0,20.0,54,0.00,,---,0.00,VWS V14.01,2013-03-03 23:28:00,
2013-03-03 18:30:00,29.7,15.5,29.97,NNW,327,0.0,12.0,55,0.00,,---,0.00,VWS V14.01,2013-03-03 23:30:00,
2013-03-03 18:33:00,30.4,15.8,29.95,West,269,13.0,21.0,54,0.00,,---,0.00,VWS V14.01,2013-03-03 23:33:00,
2013-03-03 18:38:00,30.4,15.8,29.96,WNW,290,9.0,21.0,54,0.00,,---,0.00,VWS V14.01,2013-03-03 23:38:00,
2013-03-03 18:43:00,30.3,15.7,29.96,NW,313,6.0,21.0,54,0.00,,---,0.00,VWS V14.01,2013-03-03 23:43:00,
2013-03-03 18:48:00,30.3,15.7,29.96,NW,312,19.0,21.0,54,0.00,,---,0.00,VWS V14.01,2013-03-03 23:48:00,
2013-03-03 18:53:00,30.3,15.7,29.96,NW,307,7.0,21.0,54,0.00,,---,0.00,VWS V14.01,2013-03-03 23:53:00,
2013-03-03 18:58:00,30.4,15.8,29.96,NNW,331,5.0,21.0,54,0.00,,---,0.00,VWS V14.01,2013-03-03 23:58:00,
2013-03-03 19:00:00,29.6,15.4,29.97,NW,319,4.0,17.0,55,0.00,,---,0.00,VWS V14.01,2013-03-04 00:00:00,
2013-03-03 19:03:00,30.3,15.7,29.96,NNW,330,5.0,9.0,54,0.00,,---,0.00,VWS V14.01,2013-03-04 00:03:00,
2013-03-03 19:08:00,30.2,15.6,29.97,NNW,329,8.0,9.0,54,0.00,,---,0.00,VWS V14.01,2013-03-04 00:08:00,
2013-03-03 19:13:00,30.1,15.9,29.97,NNW,348,2.0,12.0,55,0.00,,---,0.00,VWS V14.01,2013-03-04 00:13:00,
2013-03-03 19:18:00,29.9,15.7,29.97,NW,325,3.0,12.0,55,0.00,,---,0.00,VWS V14.01,2013-03-04 00:18:00,
2013-03-03 19:23:00,29.8,15.6,29.97,NNW,330,4.0,12.0,55,0.00,,---,0.00,VWS V14.01,2013-03-04 00:23:00,
2013-03-03 19:28:00,29.7,15.5,29.97,NNW,327,0.0,12.0,55,0.00,,---,0.00,VWS V14.01,2013-03-04 00:28:00,
2013-03-03 19:30:00,29.5,15.8,29.97,NW,311,4.0,16.0,56,0.00,,---,0.00,VWS V14.01,2013-03-04 00:30:00,
2013-03-03 19:33:00,29.6,15.4,29.97,NNW,327,3.0,5.0,55,0.00,,---,0.00,VWS V14.01,2013-03-04 00:33:00,
2013-03-03 19:38:00,29.4,15.2,29.97,NNW,327,5.0,5.0,55,0.00,,---,0.00,VWS V14.01,2013-03-04 00:38:00,
2013-03-03 19:43:00,29.3,15.6,29.97,NNW,327,5.0,7.0,56,0.00,,---,0.00,VWS V14.01,2013-03-04 00:43:00,
2013-03-03 19:48:00,29.2,15.5,29.97,NNW,344,14.0,17.0,56,0.00,,---,0.00,VWS V14.01,2013-03-04 00:48:00,
2013-03-03 19:53:00,29.5,15.3,29.97,NW,321,6.0,17.0,55,0.00,,---,0.00,VWS V14.01,2013-03-04 00:53:00,
2013-03-03 19:58:00,29.6,15.4,29.97,WNW,301,2.0,17.0,55,0.00,,---,0.00,VWS V14.01,2013-03-04 00:58:00,
2013-03-03 20:00:00,29.7,15.9,29.98,WNW,296,11.0,18.0,56,0.00,,---,0.00,VWS V14.01,2013-03-04 01:00:00,
2013-03-03 20:03:00,29.7,15.5,29.97,NW,317,10.0,13.0,55,0.00,,---,0.00,VWS V14.01,2013-03-04 01:03:00,
2013-03-03 20:08:00,29.7,15.5,29.97,NNW,344,11.0,13.0,55,0.00,,---,0.00,VWS V14.01,2013-03-04 01:08:00,
2013-03-03 20:13:00,29.7,15.9,29.97,NNW,338,8.0,15.0,56,0.00,,---,0.00,VWS V14.01,2013-03-04 01:13:00,
2013-03-03 20:18:00,29.7,15.9,29.97,NNW,347,5.0,15.0,56,0.00,,---,0.00,VWS V14.01,2013-03-04 01:18:00,
2013-03-03 20:23:00,29.6,15.8,29.97,NNW,338,4.0,15.0,56,0.00,,---,0.00,VWS V14.01,2013-03-04 01:23:00,
2013-03-03 20:28:00,29.5,15.8,29.97,NW,318,12.0,16.0,56,0.00,,---,0.00,VWS V14.01,2013-03-04 01:28:00,
2013-03-03 20:30:00,29.7,15.9,29.99,NNW,348,12.0,21.0,56,0.00,,---,0.00,VWS V14.01,2013-03-04 01:30:00,
2013-03-03 20:33:00,29.6,15.8,29.98,NNW,327,7.0,14.0,56,0.00,,---,0.00,VWS V14.01,2013-03-04 01:33:00,
2013-03-03 20:38:00,29.6,15.8,29.98,North,349,5.0,18.0,56,0.00,,---,0.00,VWS V14.01,2013-03-04 01:38:00,
2013-03-03 20:43:00,29.6,15.8,29.98,WNW,299,2.0,18.0,56,0.00,,---,0.00,VWS V14.01,2013-03-04 01:43:00,
2013-03-03 20:48:00,29.6,15.8,29.98,WNW,298,17.0,18.0,56,0.00,,---,0.00,VWS V14.01,2013-03-04 01:48:00,
2013-03-03 20:53:00,29.6,15.8,29.98,WNW,288,5.0,18.0,56,0.00,,---,0.00,VWS V14.01,2013-03-04 01:53:00,
2013-03-03 20:58:00,29.7,16.4,29.98,NNW,327,9.0,18.0,57,0.00,,---,0.00,VWS V14.01,2013-03-04 01:58:00,
2013-03-03 21:00:00,29.2,14.6,30.00,WSW,242,14.0,25.0,54,0.00,,---,0.00,VWS V14.01,2013-03-04 02:00:00,
2013-03-03 21:03:00,29.7,15.9,29.98,NNW,331,9.0,15.0,56,0.00,,---,0.00,VWS V14.01,2013-03-04 02:03:00,
2013-03-03 21:08:00,29.7,16.4,29.98,NNW,334,5.0,15.0,57,0.00,,---,0.00,VWS V14.01,2013-03-04 02:08:00,
2013-03-03 21:13:00,29.6,16.2,29.98,North,355,13.0,15.0,57,0.00,,---,0.00,VWS V14.01,2013-03-04 02:13:00,
2013-03-03 21:18:00,29.6,15.8,29.98,NW,317,12.0,21.0,56,0.00,,---,0.00,VWS V14.01,2013-03-04 02:18:00,
2013-03-03 21:23:00,29.7,15.9,29.99,NW,313,9.0,21.0,56,0.00,,---,0.00,VWS V14.01,2013-03-04 02:23:00,
2013-03-03 21:28:00,29.7,15.9,29.99,NNW,331,5.0,21.0,56,0.00,,---,0.00,VWS V14.01,2013-03-04 02:28:00,
2013-03-03 21:30:00,28.4,13.0,30.00,NW,321,10.0,27.0,52,0.00,,---,0.00,VWS V14.01,2013-03-04 02:30:00,
2013-03-03 21:33:00,29.7,15.5,29.99,WNW,296,7.0,20.0,55,0.00,,---,0.00,VWS V14.01,2013-03-04 02:33:00,
2013-03-03 21:38:00,29.6,15.4,29.99,West,277,13.0,25.0,55,0.00,,---,0.00,VWS V14.01,2013-03-04 02:38:00,
2013-03-03 21:43:00,29.6,15.4,29.99,North,360,11.0,25.0,55,0.00,,---,0.00,VWS V14.01,2013-03-04 02:43:00,
2013-03-03 21:48:00,29.4,14.8,29.99,WNW,300,7.0,25.0,54,0.00,,---,0.00,VWS V14.01,2013-03-04 02:48:00,
2013-03-03 21:53:00,29.4,14.4,30.00,North,351,7.0,25.0,53,0.00,,---,0.00,VWS V14.01,2013-03-04 02:53:00,
2013-03-03 21:58:00,29.2,14.6,30.00,NNW,347,11.0,25.0,54,0.00,,---,0.00,VWS V14.01,2013-03-04 02:58:00,
2013-03-03 22:00:00,28.0,13.1,30.00,NW,324,6.0,15.0,53,0.00,,---,0.00,VWS V14.01,2013-03-04 03:00:00,
2013-03-03 22:03:00,29.1,14.5,30.00,NW,313,25.0,25.0,54,0.00,,---,0.00,VWS V14.01,2013-03-04 03:03:00,
2013-03-03 22:08:00,28.9,14.4,30.00,NW,317,10.0,27.0,54,0.00,,---,0.00,VWS V14.01,2013-03-04 03:08:00,
2013-03-03 22:13:00,28.8,14.3,30.00,NW,325,5.0,27.0,54,0.00,,---,0.00,VWS V14.01,2013-03-04 03:13:00,
2013-03-03 22:18:00,28.7,13.3,30.00,NW,317,6.0,27.0,52,0.00,,---,0.00,VWS V14.01,2013-03-04 03:18:00,
2013-03-03 22:23:00,28.6,13.2,30.00,NNW,340,6.0,27.0,52,0.00,,---,0.00,VWS V14.01,2013-03-04 03:23:00,
2013-03-03 22:28:00,28.5,13.1,30.00,NW,319,13.0,27.0,52,0.00,,---,0.00,VWS V14.01,2013-03-04 03:28:00,
2013-03-03 22:30:00,27.8,12.9,30.00,NW,325,4.0,15.0,53,0.00,,---,0.00,VWS V14.01,2013-03-04 03:30:00,
2013-03-03 22:33:00,28.4,13.5,30.00,WNW,288,8.0,14.0,53,0.00,,---,0.00,VWS V14.01,2013-03-04 03:33:00,
2013-03-03 22:38:00,28.3,12.9,29.99,North,355,6.0,14.0,52,0.00,,---,0.00,VWS V14.01,2013-03-04 03:38:00,
2013-03-03 22:43:00,28.3,12.9,29.99,WNW,299,8.0,14.0,52,0.00,,---,0.00,VWS V14.01,2013-03-04 03:43:00,
2013-03-03 22:48:00,28.2,13.3,29.99,NNW,348,13.0,14.0,53,0.00,,---,0.00,VWS V14.01,2013-03-04 03:48:00,
2013-03-03 22:53:00,28.0,12.7,29.99,WNW,293,8.0,15.0,52,0.00,,---,0.00,VWS V14.01,2013-03-04 03:53:00,
2013-03-03 22:58:00,28.0,12.7,30.00,North,360,11.0,15.0,52,0.00,,---,0.00,VWS V14.01,2013-03-04 03:58:00,
2013-03-03 23:00:00,27.9,13.0,30.00,North,360,12.0,20.0,53,0.00,,---,0.00,VWS V14.01,2013-03-04 04:00:00,
2013-03-03 23:03:00,28.0,13.1,29.99,NW,319,13.0,13.0,53,0.00,,---,0.00,VWS V14.01,2013-03-04 04:03:00,
2013-03-03 23:08:00,28.0,12.7,29.99,NW,323,2.0,15.0,52,0.00,,---,0.00,VWS V14.01,2013-03-04 04:08:00,
2013-03-03 23:13:00,28.0,12.7,29.99,North,351,6.0,15.0,52,0.00,,---,0.00,VWS V14.01,2013-03-04 04:13:00,
2013-03-03 23:18:00,27.9,13.0,30.00,NW,323,2.0,15.0,53,0.00,,---,0.00,VWS V14.01,2013-03-04 04:18:00,
2013-03-03 23:23:00,27.8,12.9,30.00,NNW,327,6.0,15.0,53,0.00,,---,0.00,VWS V14.01,2013-03-04 04:23:00,
2013-03-03 23:28:00,27.8,12.9,30.00,NNW,330,2.0,15.0,53,0.00,,---,0.00,VWS V14.01,2013-03-04 04:28:00,
2013-03-03 23:30:00,27.6,13.1,30.00,North,355,5.0,17.0,54,0.00,,---,0.00,VWS V14.01,2013-03-04 04:30:00,
2013-03-03 23:33:00,27.7,12.8,30.00,NW,316,5.0,10.0,53,0.00,,---,0.00,VWS V14.01,2013-03-04 04:33:00,
2013-03-03 23:38:00,27.7,12.8,30.00,NW,321,6.0,10.0,53,0.00,,---,0.00,VWS V14.01,2013-03-04 04:38:00,
2013-03-03 23:43:00,27.6,12.7,30.00,NNW,344,11.0,17.0,53,0.00,,---,0.00,VWS V14.01,2013-03-04 04:43:00,
2013-03-03 23:48:00,27.8,12.9,30.00,NNW,333,8.0,17.0,53,0.00,,---,0.00,VWS V14.01,2013-03-04 04:48:00,
2013-03-03 23:53:00,27.8,12.9,30.00,NW,310,3.0,17.0,53,0.00,,---,0.00,VWS V14.01,2013-03-04 04:53:00,
2013-03-03 23:58:00,27.9,12.6,30.00,NW,325,7.0,20.0,52,0.00,,---,0.00,VWS V14.01,2013-03-04 04:58:00,